Impacts METAR Board
IDs:

KT35 - Cameron Muni, TX, US

Updated at: 0100 UTC 20 Sep 2020
Potential Impact None Slight Moderate High
Time 19/13Z 19/14Z 19/15Z 19/16Z 19/17Z 19/18Z 19/19Z 19/20Z 19/21Z 19/22Z 19/23Z 20/00Z 20/01Z
Temp65 67 70 74 77 79 80 82 82 81 79 77 73
Dewpt64 64 64 64 64 63 61 58 55 56 57 56 57
Altim30.10 30.12 30.12 30.13 30.12 30.10 30.08 30.05 30.03 30.02 30.03 30.04 30.05
VIS5 7 10 10 10 10 10 10 10 10 10 10 10
CIG-- -- -- -- -- -- -- -- -- -- -- -- --
CoverCLRSCTSCTCLRSCTSCTCLRCLRCLRCLRCLRCLRCLR
FltCatMVFRVFRVFRVFRVFRVFRVFRVFRVFRVFRVFRVFRVFR
WXBR------------------------
WDir10304020101020404020204040
WSpd5 6 6 6 8 8 9 9 10 8 9 8 4
WGst-- -- -- -- -- 14 17 18 18 17 16 -- --
Raw hourly METARs
KT35 191255Z AUTO 01005KT 5SM BR CLR 19/18 A3010 RMK AO2 T01850175 TSNO
KT35 191355Z AUTO 03006KT 7SM SCT009 20/18 A3012 RMK AO2 T01970179 TSNO
KT35 191455Z AUTO 04006KT 10SM SCT011 21/18 A3012 RMK AO2 T02120179 TSNO
KT35 191555Z AUTO 02006KT 10SM CLR 23/18 A3013 RMK AO2 T02330176 TSNO
KT35 191655Z AUTO 01008KT 10SM SCT028 25/18 A3012 RMK AO2 T02480178 TSNO
KT35 191755Z AUTO 01008G14KT 10SM SCT035 26/17 A3010 RMK AO2 T02620171 10264 20181 TSNO
KT35 191855Z AUTO 02009G17KT 10SM CLR 27/16 A3008 RMK AO2 T02670163 TSNO
KT35 191955Z AUTO 04009G18KT 10SM CLR 28/14 A3005 RMK AO2 T02760142 TSNO
KT35 192055Z AUTO 04010G18KT 10SM CLR 28/13 A3003 RMK AO2 T02800127 TSNO
KT35 192155Z AUTO 02008G17KT 10SM CLR 27/14 A3002 RMK AO2 T02740136 TSNO
KT35 192255Z AUTO 02009G16KT 10SM CLR 26/14 A3003 RMK AO2 T02630139 TSNO
KT35 192355Z AUTO 04008KT 10SM CLR 25/14 A3004 RMK AO2 T02500136 10280 20250 TSNO
KT35 200055Z AUTO 04004KT 10SM CLR 23/14 A3005 RMK AO2 T02300138 TSNO



Page loaded:  01:02 UTC  |   06:02 PM Pacific  |   07:02 PM Mountain  |   08:02 PM Central  |   09:02 PM Eastern

 

ADVISORIES

FORECASTS

FORECASTS

OBSERVATIONS

USER TOOLS

ABOUT US